createdAt,value
2023-04-28T00:02:10.776Z,6.40
2023-04-28T00:04:38.230Z,5.97
2023-04-28T00:07:05.052Z,6.67
2023-04-28T00:09:32.101Z,5.60
2023-04-28T00:11:59.903Z,4.03
2023-04-28T00:14:27.033Z,4.47
2023-04-28T00:16:56.904Z,5.10
2023-04-28T00:19:24.090Z,4.33
2023-04-28T00:21:50.858Z,5.10
2023-04-28T00:24:17.975Z,6.70
2023-04-28T00:26:44.822Z,7.63
2023-04-28T00:29:11.826Z,7.87
2023-04-28T00:31:38.595Z,6.73
2023-04-28T00:34:05.825Z,6.83
2023-04-28T00:36:33.384Z,6.40
2023-04-28T00:39:00.510Z,8.13
2023-04-28T00:41:27.201Z,6.90
2023-04-28T00:43:54.220Z,6.50
2023-04-28T00:46:26.900Z,6.20
2023-04-28T00:48:53.940Z,7.00
2023-04-28T00:51:21.324Z,5.90
2023-04-28T00:53:48.623Z,5.70
2023-04-28T00:56:15.709Z,5.60
2023-04-28T00:58:43.305Z,4.80
2023-04-28T01:01:10.467Z,5.53
2023-04-28T01:03:39.692Z,5.53
2023-04-28T01:06:08.690Z,4.83
2023-04-28T01:08:37.985Z,5.57
2023-04-28T01:11:10.418Z,6.30
2023-04-28T01:13:57.455Z,5.97
2023-04-28T01:16:26.269Z,6.70
2023-04-28T01:18:54.223Z,6.77
2023-04-28T01:21:30.487Z,6.43
2023-04-28T01:23:59.024Z,7.73
2023-04-28T01:26:26.454Z,8.03
2023-04-28T01:28:53.981Z,8.57
2023-04-28T01:31:20.897Z,7.83
2023-04-28T01:33:47.993Z,8.83
2023-04-28T01:36:16.429Z,6.80
2023-04-28T01:38:44.162Z,5.83
2023-04-28T01:41:12.963Z,6.50
2023-04-28T01:43:39.966Z,6.77
2023-04-28T01:46:06.796Z,6.40
2023-04-28T01:48:33.869Z,5.27
2023-04-28T01:51:00.839Z,6.03
2023-04-28T01:53:28.022Z,4.87
2023-04-28T01:55:55.389Z,5.13
2023-04-28T01:58:22.476Z,4.27
2023-04-28T02:00:49.977Z,4.77
2023-04-28T02:03:17.906Z,4.53
2023-04-28T02:05:44.794Z,4.00
2023-04-28T02:08:11.863Z,4.13
2023-04-28T02:10:38.653Z,4.47
2023-04-28T02:13:05.724Z,4.50
2023-04-28T02:15:32.671Z,4.67
2023-04-28T02:17:59.690Z,3.80
2023-04-28T02:20:27.117Z,4.03
2023-04-28T02:22:55.017Z,4.10
2023-04-28T02:25:22.214Z,3.77
2023-04-28T02:27:49.188Z,3.40
2023-04-28T02:30:16.217Z,3.67
2023-04-28T02:32:43.194Z,3.27
2023-04-28T02:35:10.041Z,3.60
2023-04-28T02:37:37.258Z,3.77
2023-04-28T02:40:04.296Z,3.97
2023-04-28T02:42:31.327Z,3.97
2023-04-28T02:44:58.138Z,4.17
2023-04-28T02:47:25.579Z,3.63
2023-04-28T02:49:52.611Z,4.03
2023-04-28T02:52:19.626Z,4.33
2023-04-28T02:54:49.071Z,6.43
2023-04-28T02:57:17.183Z,4.17
2023-04-28T02:59:43.921Z,4.93
2023-04-28T03:02:11.894Z,4.77
2023-04-28T03:04:38.837Z,4.10
2023-04-28T03:07:06.061Z,4.37
2023-04-28T03:09:32.825Z,4.50
2023-04-28T03:11:59.842Z,4.03
2023-04-28T03:14:26.884Z,4.23
2023-04-28T03:16:55.205Z,4.23
2023-04-28T03:19:21.922Z,4.47
2023-04-28T03:21:48.951Z,4.57
2023-04-28T03:24:15.914Z,5.30
2023-04-28T03:26:43.429Z,4.20
2023-04-28T03:29:10.198Z,5.13
2023-04-28T03:31:37.256Z,4.50
2023-04-28T03:34:04.518Z,4.77
2023-04-28T03:36:32.080Z,4.47
2023-04-28T03:39:06.540Z,4.10
2023-04-28T03:41:33.660Z,4.60
2023-04-28T03:44:18.898Z,4.57
2023-04-28T03:46:48.764Z,4.63
2023-04-28T03:49:15.950Z,4.97
2023-04-28T03:51:43.039Z,4.53
2023-04-28T03:54:10.588Z,4.17
2023-04-28T03:56:37.744Z,4.60
2023-04-28T03:59:04.924Z,4.37
2023-04-28T04:01:31.897Z,5.70
2023-04-28T04:03:58.929Z,4.70
2023-04-28T04:06:26.261Z,5.23
2023-04-28T04:08:53.514Z,4.10
2023-04-28T04:11:21.688Z,4.10
2023-04-28T04:13:48.427Z,4.97
2023-04-28T04:16:17.382Z,4.43
2023-04-28T04:18:44.255Z,4.60
2023-04-28T04:21:18.405Z,5.87
2023-04-28T04:23:45.809Z,5.50
2023-04-28T04:26:13.369Z,6.43
2023-04-28T04:28:40.081Z,5.57
2023-04-28T04:31:08.774Z,6.53
2023-04-28T04:33:37.590Z,5.90
2023-04-28T04:36:06.656Z,6.17
2023-04-28T04:38:33.689Z,6.60
2023-04-28T04:41:10.007Z,7.97
2023-04-28T04:43:37.585Z,8.00
2023-04-28T04:46:05.003Z,7.23
2023-04-28T04:48:32.413Z,7.80
2023-04-28T04:50:59.441Z,8.07
2023-04-28T04:53:26.774Z,7.60
2023-04-28T04:55:56.059Z,7.83
2023-04-28T04:58:22.993Z,8.17
2023-04-28T05:01:08.579Z,8.40
2023-04-28T05:03:37.033Z,7.80
2023-04-28T05:06:04.374Z,9.60
2023-04-28T05:08:49.680Z,10.97
2023-04-28T05:11:17.505Z,11.47
2023-04-28T05:13:44.320Z,10.50
2023-04-28T05:16:12.951Z,8.93
2023-04-28T05:18:45.848Z,8.93
2023-04-28T05:21:13.589Z,10.00
2023-04-28T05:23:40.564Z,9.47
2023-04-28T05:26:08.128Z,10.53
2023-04-28T05:28:35.350Z,9.13
2023-04-28T05:31:02.629Z,8.10
2023-04-28T05:33:30.686Z,8.77
2023-04-28T05:35:59.470Z,8.33
2023-04-28T05:38:26.535Z,9.43
2023-04-28T05:40:54.977Z,8.07
2023-04-28T05:43:21.778Z,8.50
2023-04-28T05:45:49.779Z,9.00
2023-04-28T05:48:16.718Z,9.63
2023-04-28T05:50:44.458Z,10.87
2023-04-28T05:53:11.690Z,10.57
2023-04-28T05:55:38.869Z,12.40
2023-04-28T05:58:05.842Z,15.23
2023-04-28T06:00:34.463Z,13.03
2023-04-28T06:03:02.138Z,15.73
2023-04-28T06:05:29.774Z,14.83
2023-04-28T06:07:56.664Z,15.43
2023-04-28T06:10:26.560Z,15.13
2023-04-28T06:12:53.326Z,15.93
2023-04-28T06:15:20.355Z,15.33
2023-04-28T06:17:48.107Z,13.83
2023-04-28T06:20:16.549Z,12.60
2023-04-28T06:22:43.761Z,12.27
2023-04-28T06:25:10.971Z,10.30
2023-04-28T06:27:46.230Z,10.97
2023-04-28T06:30:23.204Z,10.10
2023-04-28T06:32:50.238Z,8.23
2023-04-28T06:35:18.232Z,7.60
2023-04-28T06:37:45.027Z,7.33
2023-04-28T06:40:12.192Z,6.90
2023-04-28T06:42:43.405Z,6.20
2023-04-28T06:45:13.085Z,5.53
2023-04-28T06:47:40.811Z,6.78
2023-04-28T06:50:09.758Z,6.07
2023-04-28T06:52:39.497Z,6.57
2023-04-28T06:55:09.337Z,6.53
2023-04-28T06:57:37.803Z,5.53
2023-04-28T07:00:06.016Z,4.05
2023-04-28T07:02:33.049Z,3.25
2023-04-28T07:05:00.516Z,5.25
2023-04-28T07:07:27.258Z,4.82
2023-04-28T07:09:54.449Z,3.53
2023-04-28T07:12:22.197Z,2.80
2023-04-28T07:14:50.604Z,3.60
2023-04-28T07:17:17.499Z,2.40
2023-04-28T07:19:44.537Z,2.38
2023-04-28T07:22:11.226Z,2.03
2023-04-28T07:24:38.275Z,2.20
2023-04-28T07:27:05.119Z,2.30
2023-04-28T07:29:34.226Z,2.63
2023-04-28T07:32:04.227Z,2.28
2023-04-28T07:34:33.032Z,2.78
2023-04-28T07:36:59.743Z,2.10
2023-04-28T07:39:26.843Z,2.15
2023-04-28T07:41:54.056Z,2.65
2023-04-28T07:44:21.733Z,2.85
2023-04-28T07:46:49.399Z,2.25
2023-04-28T07:49:17.937Z,2.60
2023-04-28T07:51:44.639Z,2.08
2023-04-28T07:54:11.940Z,2.03
2023-04-28T07:56:38.939Z,2.10
2023-04-28T07:59:05.968Z,1.67
2023-04-28T08:01:32.706Z,1.88
2023-04-28T08:03:59.775Z,1.60
2023-04-28T08:06:26.746Z,1.85
2023-04-28T08:08:55.243Z,1.92
2023-04-28T08:11:22.610Z,1.98
2023-04-28T08:13:49.654Z,2.97
2023-04-28T08:16:16.662Z,2.10
2023-04-28T08:18:44.121Z,2.00
2023-04-28T08:21:11.088Z,2.20
2023-04-28T08:23:38.257Z,2.00
2023-04-28T08:26:04.996Z,2.10
2023-04-28T08:28:33.946Z,2.08
2023-04-28T08:31:01.537Z,2.35
2023-04-28T08:33:28.696Z,2.20
2023-04-28T08:35:56.204Z,2.33
2023-04-28T08:38:25.095Z,2.55
2023-04-28T08:40:51.872Z,2.67
2023-04-28T08:43:20.877Z,2.13
2023-04-28T08:45:47.630Z,1.70
2023-04-28T08:48:22.734Z,2.03
2023-04-28T08:50:54.702Z,2.03
2023-04-28T08:53:26.647Z,1.92
2023-04-28T08:55:57.341Z,2.00
2023-04-28T08:58:26.374Z,1.92
2023-04-28T09:00:55.088Z,1.85
2023-04-28T09:03:22.568Z,2.03
2023-04-28T09:05:49.617Z,1.40
2023-04-28T09:08:17.900Z,2.00
2023-04-28T09:10:44.726Z,2.22
2023-04-28T09:13:25.125Z,2.17
2023-04-28T09:16:00.045Z,1.73
2023-04-28T09:18:27.113Z,1.80
2023-04-28T09:21:03.271Z,1.83
2023-04-28T09:23:30.774Z,1.90
2023-04-28T09:26:00.363Z,2.45
2023-04-28T09:28:28.451Z,2.00
2023-04-28T09:30:55.465Z,2.30
2023-04-28T09:33:23.097Z,1.80
2023-04-28T09:35:50.148Z,2.00
2023-04-28T09:38:19.438Z,2.20
2023-04-28T09:40:55.467Z,1.90
2023-04-28T09:43:33.927Z,1.60
2023-04-28T09:46:05.969Z,1.73
2023-04-28T09:48:35.354Z,1.80
2023-04-28T09:51:04.445Z,1.50
2023-04-28T09:53:32.999Z,1.83
2023-04-28T09:56:01.818Z,1.70
2023-04-28T09:58:30.607Z,1.42
2023-04-28T10:00:58.945Z,1.45
2023-04-28T10:03:30.661Z,1.52
2023-04-28T10:05:58.957Z,1.98
2023-04-28T10:08:27.940Z,1.60
2023-04-28T10:10:56.877Z,1.83
2023-04-28T10:13:24.751Z,1.83
2023-04-28T10:15:55.386Z,1.92
2023-04-28T10:18:23.380Z,2.22
2023-04-28T10:20:55.647Z,2.22
2023-04-28T10:23:34.770Z,1.80
2023-04-28T10:26:03.919Z,2.13
2023-04-28T10:28:31.236Z,2.13
2023-04-28T10:31:14.120Z,2.00
2023-04-28T10:33:42.080Z,1.95
2023-04-28T10:36:09.588Z,2.40
2023-04-28T10:39:02.556Z,1.45
2023-04-28T10:41:33.091Z,3.38
2023-04-28T10:44:00.142Z,2.58
2023-04-28T10:46:26.971Z,1.90
2023-04-28T10:48:55.159Z,1.85
2023-04-28T10:51:22.674Z,2.05
2023-04-28T10:53:50.391Z,2.15
2023-04-28T10:56:27.369Z,2.10
2023-04-28T10:58:56.304Z,2.10
2023-04-28T11:01:25.948Z,2.17
2023-04-28T11:04:02.787Z,1.90
2023-04-28T11:07:09.370Z,1.83
2023-04-28T11:09:36.492Z,1.73
2023-04-28T11:12:10.526Z,1.83
2023-04-28T11:14:40.738Z,1.70
2023-04-28T11:17:13.418Z,1.77
2023-04-28T11:19:43.781Z,1.80
2023-04-28T11:22:18.713Z,1.80
2023-04-28T11:25:00.304Z,2.03
2023-04-28T11:27:28.871Z,1.70
2023-04-28T11:29:56.201Z,1.60
2023-04-28T11:32:31.414Z,2.03
2023-04-28T11:34:58.832Z,1.90
2023-04-28T11:37:25.903Z,1.80
2023-04-28T11:39:53.275Z,1.77
2023-04-28T11:42:20.096Z,2.28
2023-04-28T11:44:52.734Z,1.65
2023-04-28T11:47:31.290Z,1.52
2023-04-28T11:49:58.829Z,2.47
2023-04-28T11:52:27.365Z,2.08
2023-04-28T11:54:56.292Z,2.70
2023-04-28T11:57:23.412Z,3.28
2023-04-28T11:59:51.202Z,2.28
2023-04-28T12:02:29.308Z,2.53
2023-04-28T12:05:06.798Z,2.45
2023-04-28T12:07:42.360Z,3.60
2023-04-28T12:10:14.318Z,2.35
2023-04-28T12:12:50.615Z,2.70
2023-04-28T12:15:22.158Z,2.80
2023-04-28T12:17:50.714Z,3.67
2023-04-28T12:20:38.791Z,3.30
2023-04-28T12:23:06.437Z,4.00
2023-04-28T12:25:35.236Z,3.22
2023-04-28T12:28:04.536Z,4.53
2023-04-28T12:30:33.430Z,9.80
2023-04-28T12:33:00.437Z,3.85
2023-04-28T12:35:29.036Z,3.47
2023-04-28T12:37:58.406Z,4.13
2023-04-28T12:40:26.127Z,3.42
2023-04-28T12:42:54.130Z,3.38
2023-04-28T12:45:21.170Z,4.10
2023-04-28T12:47:48.316Z,4.13
2023-04-28T12:50:16.772Z,4.22
2023-04-28T12:52:43.552Z,4.68
2023-04-28T12:55:10.744Z,4.70
2023-04-28T12:57:39.554Z,3.92
2023-04-28T13:00:08.496Z,4.75
2023-04-28T13:02:35.848Z,5.32
2023-04-28T13:05:03.558Z,4.32
2023-04-28T13:07:30.834Z,3.72
2023-04-28T13:09:58.373Z,4.28
2023-04-28T13:12:25.335Z,4.93
2023-04-28T13:14:52.347Z,5.22
2023-04-28T13:17:19.257Z,4.38
2023-04-28T13:19:46.554Z,4.78
2023-04-28T13:22:13.423Z,4.65
2023-04-28T13:24:40.389Z,4.45
2023-04-28T13:27:09.921Z,4.57
2023-04-28T13:29:37.436Z,4.28
2023-04-28T13:32:05.607Z,4.75
2023-04-28T13:34:33.275Z,5.85
2023-04-28T13:37:00.008Z,5.25
2023-04-28T13:39:27.009Z,5.70
2023-04-28T13:41:53.744Z,5.30
2023-04-28T13:44:21.203Z,5.72
2023-04-28T13:46:48.257Z,6.10
2023-04-28T13:49:15.752Z,6.22
2023-04-28T13:51:42.736Z,6.03
2023-04-28T13:54:11.401Z,5.97
2023-04-28T13:56:38.384Z,5.25
2023-04-28T13:59:05.432Z,4.63
2023-04-28T14:01:32.201Z,4.95
2023-04-28T14:03:59.474Z,4.65
2023-04-28T14:06:27.631Z,5.18
2023-04-28T14:08:54.700Z,5.50
2023-04-28T14:11:21.594Z,5.30
2023-04-28T14:13:48.800Z,5.25
2023-04-28T14:16:15.787Z,5.90
2023-04-28T14:18:42.886Z,5.10
2023-04-28T14:21:09.990Z,5.50
2023-04-28T14:23:37.864Z,6.15
2023-04-28T14:26:04.826Z,5.80
2023-04-28T14:28:31.908Z,6.32
2023-04-28T14:30:59.186Z,6.50
2023-04-28T14:33:26.912Z,5.45
2023-04-28T14:35:53.696Z,6.63
2023-04-28T14:38:21.014Z,5.30
2023-04-28T14:40:47.726Z,5.50
2023-04-28T14:43:14.738Z,5.70
2023-04-28T14:45:41.549Z,5.82
2023-04-28T14:48:10.513Z,6.53
2023-04-28T14:50:37.692Z,5.63
2023-04-28T14:53:07.573Z,5.03
2023-04-28T14:55:34.626Z,5.45
2023-04-28T14:58:01.866Z,5.82
2023-04-28T15:00:29.285Z,5.15
2023-04-28T15:02:56.634Z,5.00
2023-04-28T15:05:23.467Z,5.60
2023-04-28T15:07:50.152Z,4.82
2023-04-28T15:10:17.843Z,5.53
2023-04-28T15:12:44.528Z,5.65
2023-04-28T15:15:11.926Z,5.45
2023-04-28T15:17:39.004Z,5.95
2023-04-28T15:20:08.071Z,5.43
2023-04-28T15:22:36.392Z,5.68
2023-04-28T15:25:03.571Z,5.70
2023-04-28T15:27:30.291Z,5.63
2023-04-28T15:29:57.433Z,4.80
2023-04-28T15:32:24.515Z,5.75
2023-04-28T15:34:51.943Z,5.70
2023-04-28T15:37:38.635Z,5.85
2023-04-28T15:40:06.780Z,5.93
2023-04-28T15:42:34.119Z,6.20
2023-04-28T15:45:02.478Z,5.75
2023-04-28T15:47:29.432Z,5.78
2023-04-28T15:49:58.877Z,5.40
2023-04-28T15:52:26.845Z,6.53
2023-04-28T15:54:55.899Z,6.30
2023-04-28T15:57:22.980Z,7.38
2023-04-28T15:59:51.685Z,6.15
2023-04-28T16:02:19.062Z,6.50
2023-04-28T16:04:46.977Z,5.72
2023-04-28T16:07:13.947Z,5.50
2023-04-28T16:09:41.336Z,8.20
2023-04-28T16:12:08.839Z,7.10
2023-04-28T16:14:37.497Z,6.65
2023-04-28T16:17:04.483Z,6.82
2023-04-28T16:19:31.605Z,6.00
2023-04-28T16:21:58.478Z,5.97
2023-04-28T16:24:25.961Z,6.40
2023-04-28T16:26:53.268Z,7.63
2023-04-28T16:29:20.318Z,6.03
2023-04-28T16:31:47.147Z,6.07
2023-04-28T16:34:14.532Z,6.10
2023-04-28T16:36:41.708Z,6.68
2023-04-28T16:39:09.534Z,6.80
2023-04-28T16:41:37.352Z,6.93
2023-04-28T16:44:04.519Z,6.45
2023-04-28T16:46:31.398Z,6.68
2023-04-28T16:48:58.590Z,7.97
2023-04-28T16:51:25.553Z,7.03
2023-04-28T16:53:52.796Z,8.30
2023-04-28T16:56:19.709Z,11.57
2023-04-28T16:58:47.755Z,7.60
2023-04-28T17:01:14.555Z,8.57
2023-04-28T17:03:42.225Z,5.93
2023-04-28T17:06:09.338Z,6.30
2023-04-28T17:08:36.521Z,5.57
2023-04-28T17:11:06.744Z,5.65
2023-04-28T17:13:34.131Z,5.20
2023-04-28T17:16:01.258Z,5.85
2023-04-28T17:18:28.766Z,7.68
2023-04-28T17:20:56.068Z,9.15
2023-04-28T17:23:23.125Z,10.13
2023-04-28T17:25:49.814Z,9.30
2023-04-28T17:28:16.799Z,8.05
2023-04-28T17:30:47.080Z,7.80
2023-04-28T17:33:15.188Z,8.25
2023-04-28T17:35:41.957Z,9.38
2023-04-28T17:38:09.175Z,7.63
2023-04-28T17:40:36.227Z,8.10
2023-04-28T17:43:04.172Z,8.70
2023-04-28T17:45:31.009Z,10.25
2023-04-28T17:48:00.696Z,8.10
2023-04-28T17:50:27.875Z,9.95
2023-04-28T17:52:55.004Z,9.13
2023-04-28T17:55:21.800Z,10.18
2023-04-28T17:57:48.945Z,10.77
2023-04-28T18:00:15.834Z,11.75
2023-04-28T18:02:42.911Z,13.70
2023-04-28T18:05:10.068Z,16.40
2023-04-28T18:07:37.773Z,18.73
2023-04-28T18:10:04.809Z,23.77
2023-04-28T18:12:31.824Z,21.63
2023-04-28T18:14:58.576Z,22.23
2023-04-28T18:17:26.206Z,20.70
2023-04-28T18:19:56.588Z,24.08
2023-04-28T18:22:23.803Z,27.08
2023-04-28T18:24:50.858Z,23.17
2023-04-28T18:27:19.259Z,19.52
2023-04-28T18:29:46.185Z,26.23
2023-04-28T18:32:15.050Z,22.30
2023-04-28T18:34:43.342Z,20.43
2023-04-28T18:37:10.738Z,22.40
2023-04-28T18:39:37.537Z,22.25
2023-04-28T18:42:04.671Z,24.07
2023-04-28T18:44:31.508Z,21.47
2023-04-28T18:46:59.918Z,29.20
2023-04-28T18:49:27.033Z,26.33
2023-04-28T18:51:54.077Z,28.17
2023-04-28T18:54:20.870Z,39.30
2023-04-28T18:56:52.526Z,101.57
2023-04-28T18:59:19.284Z,59.60
2023-04-28T19:01:47.500Z,64.27
2023-04-28T19:04:14.964Z,49.43
2023-04-28T19:06:43.121Z,41.43
2023-04-28T19:09:09.824Z,36.07
2023-04-28T19:11:36.953Z,44.90
2023-04-28T19:14:03.632Z,39.73
2023-04-28T19:16:30.730Z,61.60
2023-04-28T19:18:57.708Z,85.50
2023-04-28T19:21:25.391Z,73.63
2023-04-28T19:23:52.115Z,83.07
2023-04-28T19:26:19.204Z,87.63
2023-04-28T19:28:45.937Z,73.67
2023-04-28T19:31:12.998Z,67.00
2023-04-28T19:33:39.700Z,64.97
2023-04-28T19:36:07.501Z,57.93
2023-04-28T19:38:35.393Z,51.13
2023-04-28T19:41:02.476Z,52.33
2023-04-28T19:43:29.683Z,42.50
2023-04-28T19:45:57.087Z,36.27
2023-04-28T19:48:24.438Z,45.17
2023-04-28T19:50:51.763Z,44.87
2023-04-28T19:53:19.336Z,52.13
2023-04-28T19:55:46.558Z,50.93
2023-04-28T19:58:14.988Z,56.67
2023-04-28T20:00:42.129Z,59.57
2023-04-28T20:03:09.327Z,52.23
2023-04-28T20:05:39.574Z,59.50
2023-04-28T20:08:06.542Z,57.93
2023-04-28T20:10:33.551Z,73.23
2023-04-28T20:13:01.307Z,150.50
2023-04-28T20:15:28.346Z,102.03
2023-04-28T20:17:55.375Z,77.13
2023-04-28T20:20:22.591Z,79.23
2023-04-28T20:22:50.767Z,92.00
2023-04-28T20:25:17.885Z,77.50
2023-04-28T20:27:46.800Z,75.70
2023-04-28T20:30:14.434Z,77.90
2023-04-28T20:32:41.184Z,99.73
2023-04-28T20:35:08.635Z,106.37
2023-04-28T20:37:35.361Z,102.50
2023-04-28T20:40:03.069Z,86.60
2023-04-28T20:42:29.908Z,81.00
2023-04-28T20:44:56.881Z,98.47
2023-04-28T20:47:23.790Z,91.20
2023-04-28T20:49:51.454Z,88.63
2023-04-28T20:52:18.458Z,87.17
2023-04-28T20:54:46.910Z,84.23
2023-04-28T20:57:13.915Z,91.30
2023-04-28T20:59:40.877Z,94.63
2023-04-28T21:02:07.739Z,90.47
2023-04-28T21:04:34.924Z,82.40
2023-04-28T21:07:01.737Z,74.50
2023-04-28T21:09:28.724Z,70.73
2023-04-28T21:11:55.493Z,64.93
2023-04-28T21:14:22.530Z,65.60
2023-04-28T21:16:49.382Z,64.00
2023-04-28T21:19:17.477Z,59.47
2023-04-28T21:21:44.231Z,54.57
2023-04-28T21:24:11.316Z,49.83
2023-04-28T21:26:38.225Z,45.77
2023-04-28T21:29:05.296Z,48.60
2023-04-28T21:31:32.039Z,46.00
2023-04-28T21:33:59.237Z,43.00
2023-04-28T21:36:26.019Z,40.90
2023-04-28T21:38:53.003Z,36.70
2023-04-28T21:41:20.309Z,36.97
2023-04-28T21:43:47.297Z,35.80
2023-04-28T21:46:14.064Z,34.40
2023-04-28T21:48:41.081Z,33.00
2023-04-28T21:51:07.777Z,33.90
2023-04-28T21:53:34.741Z,32.03
2023-04-28T21:56:01.643Z,32.27
2023-04-28T21:58:28.697Z,31.93
2023-04-28T22:00:55.883Z,28.87
2023-04-28T22:03:23.577Z,30.03
2023-04-28T22:05:51.144Z,30.57
2023-04-28T22:08:18.633Z,30.13
2023-04-28T22:10:45.669Z,28.83
2023-04-28T22:13:13.528Z,32.73
2023-04-28T22:15:40.324Z,30.07
2023-04-28T22:18:08.300Z,29.63
2023-04-28T22:20:35.880Z,31.07
2023-04-28T22:23:02.983Z,30.80
2023-04-28T22:25:29.797Z,32.50
2023-04-28T22:27:56.838Z,23.60
2023-04-28T22:30:25.746Z,24.60
2023-04-28T22:32:53.499Z,24.40
2023-04-28T22:35:20.365Z,20.67
2023-04-28T22:37:47.318Z,20.53
2023-04-28T22:40:14.362Z,18.20
2023-04-28T22:42:42.062Z,16.30
2023-04-28T22:45:10.661Z,17.23
2023-04-28T22:47:40.734Z,16.67
2023-04-28T22:50:09.587Z,13.57
2023-04-28T22:52:37.376Z,12.97
2023-04-28T22:55:04.700Z,13.23
2023-04-28T22:57:31.865Z,12.33
2023-04-28T22:59:58.593Z,12.40
2023-04-28T23:02:25.835Z,12.33
2023-04-28T23:04:52.860Z,11.57
2023-04-28T23:07:19.862Z,10.50
2023-04-28T23:09:46.620Z,11.00
2023-04-28T23:12:13.639Z,11.80
2023-04-28T23:14:40.498Z,11.10
2023-04-28T23:17:07.566Z,11.03
2023-04-28T23:19:39.075Z,10.73
2023-04-28T23:22:07.559Z,10.90
2023-04-28T23:24:36.791Z,11.27
2023-04-28T23:27:04.244Z,11.13
2023-04-28T23:29:31.415Z,10.63
2023-04-28T23:31:58.829Z,10.60
2023-04-28T23:34:25.677Z,10.40
2023-04-28T23:36:52.782Z,11.17
2023-04-28T23:39:19.532Z,10.47
2023-04-28T23:41:46.559Z,10.83
2023-04-28T23:44:13.407Z,10.03
2023-04-28T23:46:40.377Z,10.23
2023-04-28T23:49:07.256Z,11.17
2023-04-28T23:51:34.259Z,11.13
2023-04-28T23:54:01.831Z,10.93
2023-04-28T23:56:29.035Z,11.07
2023-04-28T23:58:56.085Z,11.27
